Time;durP1;ratioP1;P1;durP2;ratioP2;P2;SDS_P1;SDS_P2;PMS_P1;PMS_P2;Temp;Humidity;BMP_temperature;BMP_pressure;BME280_temperature;BME280_humidity;BME280_pressure;Samples;Min_cycle;Max_cycle;Signal;HPM_P1;HPM_P2
2022/08/23 00:02:27;;;;;;;7.90;2.90;;;;;;;19.16;60.82;101254.47;5089586;27;20057;-72
2022/08/23 00:04:55;;;;;;;8.07;2.55;;;;;;;19.16;60.78;101256.28;5078718;28;20479;-72
2022/08/23 00:07:39;;;;;;;6.65;2.63;;;;;;;19.10;60.73;101249.47;5082103;28;20114;-72
2022/08/23 00:10:14;;;;;;;3.80;2.60;;;;;;;19.05;61.13;101249.75;5089458;28;20048;-71
2022/08/23 00:12:44;;;;;;;6.13;2.75;;;;;;;19.02;61.48;101244.63;5083276;28;20040;-71
2022/08/23 00:15:15;;;;;;;5.90;3.03;;;;;;;19.01;61.57;101250.03;5083914;28;20082;-72
2022/08/23 00:17:42;;;;;;;10.00;2.90;;;;;;;18.99;61.93;101247.47;5090047;28;20071;-72
2022/08/23 00:20:15;;;;;;;11.80;3.25;;;;;;;18.94;62.12;101246.88;5085572;28;20129;-71
2022/08/23 00:22:43;;;;;;;7.38;3.10;;;;;;;18.87;62.18;101237.47;5083583;28;20045;-71
2022/08/23 00:25:12;;;;;;;6.40;2.92;;;;;;;18.84;62.21;101238.53;5089064;28;20056;-71
2022/08/23 00:27:40;;;;;;;6.28;3.10;;;;;;;18.82;62.30;101237.75;5074259;28;20040;-71
2022/08/23 00:30:11;;;;;;;6.07;3.42;;;;;;;18.77;62.09;101238.00;5083082;28;20044;-71
2022/08/23 00:32:40;;;;;;;8.88;3.35;;;;;;;18.77;62.87;101235.34;5090904;28;20092;-70
2022/08/23 00:35:12;;;;;;;6.15;3.25;;;;;;;18.73;62.96;101233.78;5089798;28;20060;-73
2022/08/23 00:37:56;;;;;;;7.75;3.70;;;;;;;18.71;63.12;101240.19;5095434;27;20041;-72
2022/08/23 00:40:51;;;;;;;9.75;3.50;;;;;;;18.66;63.05;101234.25;5081405;28;20036;-72
2022/08/23 00:49:32;;;;;;;7.45;3.22;;;;;;;18.53;64.01;101234.97;5072625;28;20049;-69
2022/08/23 00:52:12;;;;;;;11.45;3.70;;;;;;;18.49;64.18;101232.56;5085302;27;20067;-70
2022/08/23 00:54:41;;;;;;;7.55;3.20;;;;;;;18.42;63.92;101235.56;5107789;27;20041;-70
2022/08/23 00:57:15;;;;;;;8.55;3.60;;;;;;;18.39;64.53;101233.09;5099678;28;20041;-70
2022/08/23 00:59:42;;;;;;;6.03;3.30;;;;;;;18.36;64.72;101233.25;5093852;28;20086;-70
2022/08/23 01:02:11;;;;;;;9.27;3.72;;;;;;;18.33;64.71;101233.44;5084472;27;20052;-70
2022/08/23 01:04:50;;;;;;;8.32;3.38;;;;;;;18.31;64.91;101244.19;5093454;28;20033;-70
2022/08/23 01:07:51;;;;;;;6.22;3.88;;;;;;;18.28;65.21;101239.03;5087074;28;20129;-70
2022/08/23 01:10:48;;;;;;;8.85;3.85;;;;;;;18.23;64.88;101245.56;5096608;28;20033;-71
2022/08/23 01:13:33;;;;;;;7.30;3.22;;;;;;;18.19;64.87;101246.72;5091125;28;20044;-71
2022/08/23 01:16:14;;;;;;;;;;;;;;;18.13;64.91;101245.25;5074316;28;20068;-71
2022/08/23 01:18:43;;;;;;;6.25;3.58;;;;;;;18.10;65.05;101246.28;5101892;28;19954;-70
2022/08/23 01:21:23;;;;;;;7.28;3.70;;;;;;;18.08;64.82;101242.81;5079232;28;20135;-70
2022/08/23 01:24:02;;;;;;;8.95;3.95;;;;;;;18.04;64.71;101243.94;5082296;28;20033;-72
2022/08/23 01:26:33;;;;;;;8.13;3.72;;;;;;;18.00;64.70;101248.59;5086504;28;20037;-72
2022/08/23 01:29:05;;;;;;;6.32;3.58;;;;;;;17.96;64.70;101244.34;5087713;28;20045;-71
2022/08/23 01:31:35;;;;;;;13.55;3.70;;;;;;;17.94;64.69;101261.34;5085663;28;20076;-72
2022/08/23 01:34:09;;;;;;;7.15;3.70;;;;;;;17.91;65.30;101259.72;5087862;28;20037;-69
2022/08/23 01:36:38;;;;;;;6.57;3.05;;;;;;;17.83;65.66;101253.97;5085569;28;20041;-71
2022/08/23 01:39:07;;;;;;;5.93;3.40;;;;;;;17.77;65.61;101251.59;5088231;28;20442;-71
2022/08/23 01:41:37;;;;;;;8.05;3.30;;;;;;;17.72;65.75;101256.34;5085534;28;20095;-71
2022/08/23 01:44:05;;;;;;;6.72;3.90;;;;;;;17.68;66.42;101251.16;5083951;28;20053;-71
2022/08/23 01:46:33;;;;;;;6.07;3.13;;;;;;;17.68;66.86;101253.81;5089906;28;20049;-71
2022/08/23 01:49:03;;;;;;;6.25;3.95;;;;;;;17.72;67.00;101248.34;5099328;27;20041;-69
2022/08/23 01:51:34;;;;;;;11.80;4.35;;;;;;;17.67;67.44;101244.09;5078191;28;20037;-72
2022/08/23 01:54:02;;;;;;;9.40;4.32;;;;;;;17.63;67.81;101247.91;5085936;28;20085;-71
2022/08/23 01:56:32;;;;;;;7.38;3.97;;;;;;;17.61;67.99;101248.91;5100444;28;20157;-71
2022/08/23 01:59:11;;;;;;;10.10;3.92;;;;;;;17.56;67.57;101249.16;5085877;28;20045;-71
2022/08/23 02:01:46;;;;;;;7.10;4.20;;;;;;;17.50;68.10;101245.00;5086546;28;20087;-71
2022/08/23 02:04:13;;;;;;;10.25;4.47;;;;;;;17.48;68.32;101243.38;5112609;27;20060;-69
2022/08/23 02:06:40;;;;;;;8.73;4.53;;;;;;;17.46;68.44;101253.25;5075612;28;20049;-71
2022/08/23 02:09:11;;;;;;;8.77;4.63;;;;;;;17.46;68.55;101248.78;5088008;28;20044;-71
2022/08/23 02:11:46;;;;;;;9.68;4.40;;;;;;;17.44;68.67;101252.50;5088168;28;20098;-71
2022/08/23 02:14:19;;;;;;;6.22;4.20;;;;;;;17.43;68.90;101251.59;5090074;28;20522;-73
2022/08/23 02:16:54;;;;;;;11.88;5.00;;;;;;;17.41;69.00;101244.66;5088817;28;20049;-73
2022/08/23 02:19:34;;;;;;;8.48;4.35;;;;;;;17.39;68.93;101258.06;5087188;28;20048;-73
2022/08/23 02:22:05;;;;;;;8.07;4.53;;;;;;;17.37;68.64;101255.47;5081568;28;20041;-71
2022/08/23 02:24:37;;;;;;;7.68;4.45;;;;;;;17.37;68.57;101244.78;5083230;28;20040;-73
2022/08/23 02:27:05;;;;;;;8.00;4.50;;;;;;;17.36;68.47;101253.72;5088019;28;20051;-72
2022/08/23 02:29:38;;;;;;;7.28;4.10;;;;;;;17.35;68.24;101254.66;5087880;28;20051;-73
2022/08/23 02:32:12;;;;;;;10.32;4.78;;;;;;;17.35;68.01;101259.16;5093390;28;20040;-72
2022/08/23 02:34:43;;;;;;;7.80;4.30;;;;;;;17.35;68.04;101253.81;5075474;28;20231;-71
2022/08/23 02:37:18;;;;;;;8.82;4.53;;;;;;;17.34;68.13;101252.97;5075232;28;20037;-73
2022/08/23 02:39:47;;;;;;;7.53;4.70;;;;;;;17.35;67.91;101252.00;5101733;28;20540;-70
2022/08/23 02:42:16;;;;;;;6.03;4.00;;;;;;;17.33;67.71;101243.25;5099155;27;20542;-73
2022/08/23 02:44:43;;;;;;;7.00;4.15;;;;;;;17.32;67.87;101249.53;5084384;28;20070;-73
2022/08/23 02:47:11;;;;;;;7.82;4.18;;;;;;;17.31;68.45;101244.25;5087477;28;20041;-71
2022/08/23 02:49:42;;;;;;;8.00;4.72;;;;;;;17.28;68.18;101244.44;5103219;27;20055;-73
2022/08/23 02:52:09;;;;;;;6.35;4.03;;;;;;;17.25;68.35;101253.41;5083211;28;20045;-73
2022/08/23 02:54:37;;;;;;;10.23;4.22;;;;;;;17.22;68.35;101242.94;5070720;28;20041;-73
2022/08/23 02:57:05;;;;;;;6.32;3.83;;;;;;;17.19;68.61;101248.44;5088670;28;20067;-73
2022/08/23 02:59:32;;;;;;;7.97;3.70;;;;;;;17.14;68.92;101248.66;5078730;28;20119;-72
2022/08/23 03:01:59;;;;;;;6.97;3.63;;;;;;;17.11;69.29;101247.97;5094115;27;20124;-72
2022/08/23 03:04:32;;;;;;;7.85;3.90;;;;;;;17.05;69.42;101249.13;5100585;28;20048;-71
2022/08/23 03:06:59;;;;;;;7.28;4.80;;;;;;;17.00;69.67;101244.06;5080253;28;20045;-72
2022/08/23 03:09:27;;;;;;;8.65;4.05;;;;;;;16.96;69.71;101254.94;5076471;28;20045;-72
2022/08/23 03:11:54;;;;;;;6.50;4.50;;;;;;;16.96;69.42;101254.94;5086832;28;20119;-71
2022/08/23 03:14:23;;;;;;;8.80;4.03;;;;;;;16.95;69.32;101254.06;5087852;28;20053;-71
2022/08/23 03:16:51;;;;;;;8.48;4.47;;;;;;;16.95;69.28;101255.88;5100689;27;20520;-71
2022/08/23 03:19:18;;;;;;;8.10;4.32;;;;;;;16.96;69.27;101257.59;5087421;28;20044;-71
2022/08/23 03:21:46;;;;;;;10.25;4.90;;;;;;;16.96;69.26;101258.44;5085730;28;20044;-72
2022/08/23 03:24:16;;;;;;;8.90;4.85;;;;;;;16.96;69.47;101261.09;5094215;28;20049;-71
2022/08/23 03:26:44;;;;;;;10.88;4.63;;;;;;;16.94;69.69;101255.00;5088184;28;20411;-72
2022/08/23 03:29:13;;;;;;;7.18;4.80;;;;;;;16.92;70.00;101256.88;5085785;28;20043;-72
2022/08/23 03:32:09;;;;;;;6.20;4.30;;;;;;;16.89;69.88;101265.84;5077890;28;20041;-72
2022/08/23 03:34:38;;;;;;;5.60;3.80;;;;;;;16.85;70.08;101264.28;5080728;28;20095;-73
2022/08/23 03:37:09;;;;;;;6.40;4.10;;;;;;;16.80;70.03;101266.31;5124394;27;20052;-74
2022/08/23 03:39:36;;;;;;;10.10;4.70;;;;;;;16.75;69.95;101265.69;5103071;27;20136;-73
2022/08/23 03:42:04;;;;;;;7.40;4.30;;;;;;;16.70;70.00;101263.25;5086506;28;20049;-73
2022/08/23 03:44:33;;;;;;;11.10;4.57;;;;;;;16.68;69.95;101270.44;5085391;28;20044;-72
2022/08/23 03:47:01;;;;;;;7.60;4.53;;;;;;;16.66;69.81;101271.47;5099270;28;20051;-72
2022/08/23 03:49:31;;;;;;;6.93;4.70;;;;;;;16.63;69.89;101271.63;5083838;28;20041;-72
2022/08/23 03:52:00;;;;;;;8.77;4.95;;;;;;;16.61;70.04;101277.88;5082896;28;20041;-72
2022/08/23 03:54:29;;;;;;;7.93;5.05;;;;;;;16.58;70.41;101279.81;5083793;28;20535;-72
2022/08/23 03:57:04;;;;;;;8.00;5.05;;;;;;;16.52;70.72;101275.66;5089502;28;20120;-72
2022/08/23 03:59:36;;;;;;;9.65;5.32;;;;;;;16.50;70.56;101287.31;5104361;27;20049;-72
2022/08/23 04:02:08;;;;;;;10.18;4.85;;;;;;;16.46;70.65;101286.59;5108444;27;20041;-72
2022/08/23 04:04:35;;;;;;;7.38;5.78;;;;;;;16.43;70.60;101289.41;5102038;27;20048;-71
2022/08/23 04:07:32;;;;;;;8.95;5.20;;;;;;;16.41;70.67;101297.47;5066988;28;20215;-70
2022/08/23 04:09:59;;;;;;;9.63;5.30;;;;;;;16.42;70.67;101293.00;5083648;28;20052;-71
2022/08/23 04:12:32;;;;;;;8.57;5.45;;;;;;;16.42;70.93;101300.97;5103760;28;20596;-73
2022/08/23 04:14:59;;;;;;;9.48;5.97;;;;;;;16.42;70.93;101296.53;5086977;28;20471;-72
2022/08/23 04:17:33;;;;;;;7.97;6.03;;;;;;;16.42;70.99;101304.53;5108072;27;20536;-71
2022/08/23 04:20:04;;;;;;;8.27;5.35;;;;;;;16.43;70.99;101311.53;5088545;28;20509;-71
2022/08/23 04:22:36;;;;;;;10.25;5.53;;;;;;;16.42;70.99;101306.31;5100928;28;20052;-71
2022/08/23 04:25:04;;;;;;;10.68;6.18;;;;;;;16.40;71.11;101309.06;5102228;28;20044;-69
2022/08/23 04:27:53;;;;;;;10.80;6.85;;;;;;;16.40;71.01;101313.50;5095514;28;20558;-69
2022/08/23 04:30:21;;;;;;;10.98;6.40;;;;;;;16.42;71.57;101322.28;5115128;27;20041;-70
2022/08/23 04:32:49;;;;;;;10.45;6.38;;;;;;;16.42;72.11;101328.47;5088420;28;20041;-69
2022/08/23 04:35:17;;;;;;;16.35;7.35;;;;;;;16.46;72.00;101321.19;5088828;28;20036;-68
2022/08/23 04:37:44;;;;;;;16.35;8.68;;;;;;;16.48;72.36;101324.66;5107185;27;20123;-70
2022/08/23 04:42:58;;;;;;;13.00;7.80;;;;;;;16.55;72.82;101327.88;5091946;28;20498;-74
2022/08/23 04:45:26;;;;;;;14.80;8.23;;;;;;;16.57;72.62;101328.66;5101114;27;20478;-73
2022/08/23 04:47:53;;;;;;;14.18;7.82;;;;;;;16.59;72.52;101329.47;5102245;28;20063;-74
2022/08/23 04:50:21;;;;;;;16.92;8.73;;;;;;;16.63;72.61;101333.72;5089075;28;20090;-73
2022/08/23 04:53:07;;;;;;;19.30;8.23;;;;;;;16.67;72.73;101331.75;5079824;28;20076;-73
2022/08/23 04:55:42;;;;;;;13.85;8.27;;;;;;;16.71;72.39;101336.84;5098972;27;20079;-72
2022/08/23 04:58:09;;;;;;;19.80;8.85;;;;;;;16.75;72.63;101332.25;5106955;27;20040;-72
2022/08/23 05:00:44;;;;;;;13.70;9.10;;;;;;;16.80;72.60;101334.69;5116451;27;21019;-73
2022/08/23 05:03:21;;;;;;;14.40;8.93;;;;;;;16.86;72.67;101337.03;5114862;27;20057;-72
2022/08/23 05:05:52;;;;;;;11.95;7.75;;;;;;;16.89;72.35;101335.06;5082310;28;20047;-72
2022/08/23 05:08:25;;;;;;;10.65;6.95;;;;;;;16.93;72.50;101343.81;5092516;28;20107;-72
2022/08/23 05:10:52;;;;;;;9.02;6.70;;;;;;;16.95;72.84;101343.75;5096040;28;20071;-72
2022/08/23 05:13:20;;;;;;;13.98;6.88;;;;;;;16.95;72.81;101341.94;5089256;28;20098;-74
2022/08/23 05:15:51;;;;;;;16.25;7.30;;;;;;;16.97;72.97;101339.22;5089315;28;20040;-74
2022/08/23 05:18:21;;;;;;;15.05;8.15;;;;;;;16.97;73.23;101334.75;5088683;28;20049;-73
2022/08/23 05:20:50;;;;;;;12.02;7.75;;;;;;;16.97;73.22;101345.41;5108345;28;20036;-72
2022/08/23 05:23:17;;;;;;;16.25;7.97;;;;;;;17.15;73.08;101346.28;5117182;27;20486;-73
2022/08/23 05:25:55;;;;;;;13.65;7.25;;;;;;;17.54;72.33;101353.19;5106365;28;20036;-73
2022/08/23 05:28:33;;;;;;;15.00;7.50;;;;;;;19.16;68.78;101348.00;5089240;28;20811;-71
2022/08/23 05:31:12;;;;;;;15.65;7.70;;;;;;;20.59;65.35;101350.03;5082723;28;20052;-71
2022/08/23 05:33:51;;;;;;;11.63;6.93;;;;;;;21.84;61.06;101347.09;5108044;27;20043;-71
2022/08/23 05:36:36;;;;;;;10.57;6.60;;;;;;;22.76;57.96;101340.56;5090881;28;20800;-71
2022/08/23 05:39:05;;;;;;;8.02;6.38;;;;;;;23.44;55.92;101342.69;5091314;28;20041;-70
2022/08/23 05:41:36;;;;;;;12.13;6.78;;;;;;;23.42;55.57;101337.44;5090045;28;20046;-71
2022/08/23 05:44:09;;;;;;;10.98;7.03;;;;;;;22.39;57.65;101346.78;5094984;28;20472;-70
2022/08/23 05:46:41;;;;;;;12.27;6.85;;;;;;;21.57;59.23;101347.13;5091768;28;20548;-70
2022/08/23 05:49:35;;;;;;;10.60;7.30;;;;;;;20.83;60.83;101350.28;5089634;28;20040;-70
2022/08/23 05:52:08;;;;;;;9.82;7.03;;;;;;;20.37;62.45;101347.88;5091253;28;20571;-70
2022/08/23 05:54:37;;;;;;;12.02;7.50;;;;;;;20.07;63.65;101352.41;5104896;28;20138;-71
2022/08/23 05:57:23;;;;;;;11.13;6.75;;;;;;;19.86;64.36;101355.44;5091659;28;20041;-70
2022/08/23 05:59:51;;;;;;;9.85;6.93;;;;;;;19.73;64.75;101356.25;5094279;28;20048;-70
2022/08/23 06:02:18;;;;;;;10.80;7.05;;;;;;;19.64;64.92;101360.34;5090679;28;20040;-72
2022/08/23 06:04:46;;;;;;;9.57;7.20;;;;;;;19.55;65.22;101359.97;5088348;28;20055;-70
2022/08/23 06:07:15;;;;;;;10.93;8.32;;;;;;;19.55;65.24;101367.97;5090891;28;20044;-70
2022/08/23 06:09:42;;;;;;;15.95;9.40;;;;;;;19.61;65.31;101366.75;5092932;28;20033;-70
2022/08/23 06:12:10;;;;;;;12.10;9.27;;;;;;;19.68;65.18;101369.91;5089041;28;20119;-70
2022/08/23 06:14:38;;;;;;;19.90;9.13;;;;;;;19.82;65.18;101374.44;5108685;28;20427;-70
2022/08/23 06:17:05;;;;;;;12.50;9.25;;;;;;;19.98;64.95;101377.06;5112654;27;20518;-70
2022/08/23 06:19:32;;;;;;;14.05;9.40;;;;;;;20.15;64.92;101371.50;5112927;27;20040;-70
2022/08/23 06:21:59;;;;;;;13.60;9.30;;;;;;;20.29;64.64;101373.31;5092504;28;20149;-70
2022/08/23 06:24:32;;;;;;;14.13;9.70;;;;;;;20.37;64.33;101380.00;5092198;28;20650;-70
2022/08/23 06:27:10;;;;;;;14.63;9.13;;;;;;;20.51;63.77;101379.97;5084075;28;20041;-70
2022/08/23 06:29:38;;;;;;;13.82;9.45;;;;;;;20.66;63.78;101377.25;5122489;27;20041;-70
2022/08/23 06:32:44;;;;;;;14.15;8.43;;;;;;;20.76;63.52;101379.28;5070813;28;20192;-70
2022/08/23 06:35:49;;;;;;;16.02;9.60;;;;;;;20.83;63.33;101381.56;5028025;28;20600;-69
2022/08/23 06:38:25;;;;;;;12.90;9.82;;;;;;;20.76;63.14;101381.97;5080128;28;20111;-70
2022/08/23 06:41:23;;;;;;;16.30;10.40;;;;;;;20.84;63.03;101375.25;5102940;27;20051;-70
2022/08/23 06:44:19;;;;;;;14.13;9.93;;;;;;;20.91;63.16;101377.44;5094298;28;20044;-71
2022/08/23 06:47:10;;;;;;;19.88;9.82;;;;;;;21.05;63.12;101379.19;5103168;27;20037;-71
2022/08/23 06:49:38;;;;;;;20.38;11.32;;;;;;;21.15;62.76;101379.47;5099000;27;20476;-70
2022/08/23 06:52:27;;;;;;;20.77;10.23;;;;;;;21.26;62.47;101384.09;5090840;28;20120;-70
2022/08/23 06:55:12;;;;;;;16.52;10.68;;;;;;;21.32;62.14;101386.34;5085909;28;20035;-70
2022/08/23 06:58:03;;;;;;;13.20;10.82;;;;;;;21.40;62.19;101389.41;5086415;28;20044;-70
2022/08/23 07:01:35;;;;;;;13.43;10.45;;;;;;;21.49;61.96;101381.69;5089471;28;20131;-70
2022/08/23 07:04:32;;;;;;;16.55;10.70;;;;;;;21.57;62.00;101382.00;5089622;27;20053;-70
2022/08/23 07:07:28;;;;;;;14.57;9.38;;;;;;;21.64;61.76;101377.13;5112527;27;20052;-70
2022/08/23 07:10:08;;;;;;;17.10;12.73;;;;;;;21.74;61.45;101386.25;5077521;28;20048;-70
2022/08/23 07:12:41;;;;;;;17.17;12.98;;;;;;;21.83;61.40;101382.06;5095225;27;20044;-70
2022/08/23 07:15:12;;;;;;;18.80;13.13;;;;;;;21.91;61.38;101381.53;5077439;28;20041;-70
2022/08/23 07:17:44;;;;;;;14.27;11.43;;;;;;;21.98;61.15;101381.00;5078820;28;20095;-70
2022/08/23 07:20:12;;;;;;;15.02;12.80;;;;;;;22.09;60.71;101384.75;5090348;28;20041;-70
2022/08/23 07:22:43;;;;;;;17.98;13.32;;;;;;;22.18;60.40;101387.63;5111521;27;20036;-70
2022/08/23 07:25:13;;;;;;;14.88;13.13;;;;;;;22.26;60.19;101389.78;5102510;27;20039;-70
2022/08/23 07:27:45;;;;;;;16.52;13.57;;;;;;;22.36;60.13;101399.84;5115070;27;20040;-71
2022/08/23 07:30:15;;;;;;;18.40;12.68;;;;;;;22.46;59.40;101393.75;5102247;27;20035;-70
2022/08/23 07:32:44;;;;;;;20.40;13.50;;;;;;;22.53;58.48;101396.00;5114051;27;20065;-70
2022/08/23 07:35:22;;;;;;;16.75;13.95;;;;;;;22.57;58.83;101398.34;5098624;27;20040;-70
2022/08/23 07:38:00;;;;;;;18.98;13.73;;;;;;;22.64;58.93;101398.75;5072401;28;20557;-69
2022/08/23 07:40:33;;;;;;;21.42;14.00;;;;;;;22.71;58.52;101397.34;5091315;28;20048;-70
2022/08/23 07:43:06;;;;;;;16.30;13.15;;;;;;;22.82;57.70;101410.00;5097625;27;20040;-70
2022/08/23 07:45:37;;;;;;;20.33;14.35;;;;;;;22.90;57.85;101407.59;5117758;27;20155;-70
2022/08/23 07:48:06;;;;;;;21.30;14.65;;;;;;;22.98;57.76;101407.03;5086403;28;20558;-70
2022/08/23 07:51:02;;;;;;;21.38;14.25;;;;;;;23.07;57.56;101406.34;5110619;27;20059;-70
2022/08/23 07:53:30;;;;;;;17.67;14.05;;;;;;;23.19;57.28;101414.50;5098620;28;20044;-70
2022/08/23 07:56:07;;;;;;;16.88;14.88;;;;;;;23.27;57.52;101415.63;5092190;28;20043;-70
2022/08/23 07:58:53;;;;;;;18.65;14.00;;;;;;;23.38;57.07;101411.28;5091558;28;20047;-71
2022/08/23 08:01:58;;;;;;;20.67;13.80;;;;;;;23.51;56.67;101409.38;5073301;28;20082;-71
2022/08/23 08:04:26;;;;;;;21.42;13.38;;;;;;;23.58;56.20;101423.22;5091653;28;20059;-70
2022/08/23 08:06:55;;;;;;;20.70;14.63;;;;;;;23.68;56.24;101424.22;5106100;28;20040;-71
2022/08/23 08:09:44;;;;;;;14.80;12.80;;;;;;;23.84;56.29;101417.66;5105869;27;20539;-70
2022/08/23 08:12:12;;;;;;;17.75;14.02;;;;;;;23.94;55.42;101418.66;5109813;27;20036;-71
2022/08/23 08:14:41;;;;;;;18.92;14.38;;;;;;;24.03;55.13;101414.41;5103748;27;20048;-70
2022/08/23 08:17:11;;;;;;;20.55;13.45;;;;;;;24.14;54.96;101422.50;5105923;27;20041;-71
2022/08/23 08:19:57;;;;;;;28.65;14.18;;;;;;;24.30;54.22;101424.84;5092988;28;20068;-70
2022/08/23 08:22:33;;;;;;;19.08;14.35;;;;;;;24.40;54.57;101424.09;5090001;28;20043;-71
2022/08/23 08:25:26;;;;;;;18.42;13.68;;;;;;;24.56;54.03;101427.28;5087951;28;20095;-71
2022/08/23 08:27:57;;;;;;;17.08;13.93;;;;;;;24.71;53.93;101427.91;5088432;28;20045;-70
2022/08/23 08:30:24;;;;;;;23.73;12.30;;;;;;;24.88;53.16;101421.13;5088148;28;20040;-70
2022/08/23 08:32:52;;;;;;;22.90;13.00;;;;;;;24.92;52.03;101424.41;5101289;28;20087;-70
2022/08/23 08:35:20;;;;;;;21.55;13.65;;;;;;;24.92;52.30;101430.69;5089812;28;20045;-70
2022/08/23 08:37:50;;;;;;;19.23;12.55;;;;;;;25.10;52.01;101425.59;5105798;28;20137;-70
2022/08/23 08:40:39;;;;;;;17.85;12.60;;;;;;;25.36;51.25;101424.38;5097341;28;20044;-70
2022/08/23 08:43:33;;;;;;;23.42;12.43;;;;;;;25.70;51.27;101429.66;5086848;28;20130;-70
2022/08/23 08:46:23;;;;;;;20.48;11.77;;;;;;;25.97;48.76;101425.56;5083863;28;20901;-70
2022/08/23 08:48:59;;;;;;;35.67;11.68;;;;;;;26.08;48.25;101432.75;5121010;27;20530;-70
2022/08/23 08:52:17;;;;;;;16.85;10.55;;;;;;;26.17;48.54;101424.69;5087058;28;20080;-71
2022/08/23 08:54:49;;;;;;;14.82;8.40;;;;;;;26.37;48.00;101434.75;5088289;28;20047;-71
2022/08/23 08:57:24;;;;;;;19.52;9.38;;;;;;;26.54;46.82;101427.84;5081503;28;20045;-71
2022/08/23 09:00:12;;;;;;;19.48;9.48;;;;;;;26.62;46.96;101428.84;5086399;28;20045;-71
2022/08/23 09:02:42;;;;;;;56.33;10.95;;;;;;;26.71;45.95;101432.59;5088094;28;20146;-71
2022/08/23 09:05:30;;;;;;;24.98;8.75;;;;;;;26.81;45.25;101435.34;5082411;28;20105;-71
2022/08/23 09:08:01;;;;;;;20.10;8.30;;;;;;;26.80;44.96;101437.19;5103593;27;20073;-73
2022/08/23 09:11:45;;;;;;;26.63;8.88;;;;;;;26.82;45.85;101437.06;5103332;27;20047;-71
2022/08/23 09:14:36;;;;;;;21.20;7.60;;;;;;;26.81;44.51;101428.09;5042818;28;20045;-72
2022/08/23 09:17:30;;;;;;;17.58;6.80;;;;;;;26.80;43.02;101439.06;5090638;28;20063;-71
2022/08/23 09:20:05;;;;;;;22.50;5.57;;;;;;;26.89;42.41;101438.22;5092770;28;20041;-71
2022/08/23 09:22:41;;;;;;;24.30;6.03;;;;;;;26.97;41.98;101437.50;5089490;28;20824;-70
2022/08/23 09:25:20;;;;;;;15.00;6.22;;;;;;;27.09;41.85;101438.25;5120665;27;20047;-72
2022/08/23 09:27:57;;;;;;;14.68;6.47;;;;;;;27.25;42.40;101441.25;5092322;28;20049;-71
2022/08/23 09:30:55;;;;;;;16.25;6.57;;;;;;;27.38;42.05;101434.69;5081242;28;20039;-71
2022/08/23 09:33:39;;;;;;;14.25;6.05;;;;;;;27.51;41.81;101440.72;5085980;28;20048;-71
2022/08/23 09:36:21;;;;;;;26.83;6.95;;;;;;;27.66;40.95;101435.72;5112525;27;20883;-71
2022/08/23 09:39:04;;;;;;;13.30;5.75;;;;;;;27.88;41.68;101442.66;5085033;28;21546;-71
2022/08/23 09:41:32;;;;;;;15.60;5.80;;;;;;;28.02;41.15;101430.50;5088131;28;20052;-71
2022/08/23 09:44:07;;;;;;;10.43;6.15;;;;;;;28.05;40.79;101423.94;5091367;28;20041;-71
2022/08/23 09:46:43;;;;;;;11.85;6.25;;;;;;;28.04;40.03;101428.50;5087975;28;20115;-71
2022/08/23 09:49:28;;;;;;;11.18;6.70;;;;;;;28.02;39.63;101425.09;5126379;27;20040;-71
2022/08/23 09:52:36;;;;;;;11.70;5.55;;;;;;;28.00;38.82;101426.25;5076005;28;20121;-71
2022/08/23 09:55:23;;;;;;;19.35;6.10;;;;;;;28.01;39.33;101425.25;5114004;27;20135;-71
2022/08/23 09:57:51;;;;;;;18.15;5.18;;;;;;;28.05;39.66;101427.50;5117347;27;20420;-72
2022/08/23 10:00:34;;;;;;;15.73;6.22;;;;;;;28.17;39.09;101421.94;5110025;27;20036;-70
2022/08/23 10:03:35;;;;;;;17.15;6.43;;;;;;;28.42;39.35;101424.97;5090158;28;20110;-70
2022/08/23 10:06:29;;;;;;;9.32;6.20;;;;;;;28.64;38.89;101424.56;5094645;28;20061;-71
2022/08/23 10:09:04;;;;;;;15.07;5.65;;;;;;;28.69;38.65;101421.38;5091182;28;20139;-72
2022/08/23 10:11:42;;;;;;;12.45;5.15;;;;;;;28.67;38.12;101420.69;5088168;28;20040;-71
2022/08/23 10:14:18;;;;;;;16.25;5.22;;;;;;;28.71;37.89;101430.28;5093298;28;20047;-71
2022/08/23 10:17:15;;;;;;;17.85;5.82;;;;;;;28.80;37.30;101410.38;5109072;27;21017;-71
2022/08/23 10:20:02;;;;;;;19.73;6.38;;;;;;;28.87;37.48;101417.88;5129475;27;20071;-71
2022/08/23 10:22:45;;;;;;;12.07;5.82;;;;;;;28.90;37.85;101420.28;5108078;27;20047;-71
2022/08/23 10:25:57;;;;;;;13.40;6.25;;;;;;;28.93;37.64;101425.41;5129901;27;20470;-70
2022/08/23 10:32:27;;;;;;;9.85;5.40;;;;;;;29.06;37.76;101406.03;5125272;27;20057;-70
2022/08/23 10:35:35;;;;;;;13.77;4.65;;;;;;;29.20;38.12;101407.34;5122647;27;20044;-71
2022/08/23 10:38:33;;;;;;;12.57;5.25;;;;;;;29.28;37.21;101421.00;5113023;27;20127;-72
2022/08/23 10:41:29;;;;;;;14.82;3.20;;;;;;;29.27;36.68;101413.84;5125722;27;20979;-71
2022/08/23 10:44:23;;;;;;;9.60;4.25;;;;;;;29.32;37.06;101405.25;5111667;27;20047;-72
2022/08/23 10:47:18;;;;;;;15.98;5.35;;;;;;;29.40;37.26;101410.81;5109498;27;20040;-71
2022/08/23 10:49:53;;;;;;;8.80;5.35;;;;;;;29.42;36.99;101406.91;5111345;27;20055;-71
2022/08/23 10:52:35;;;;;;;12.60;4.70;;;;;;;29.39;36.78;101396.34;5122893;27;20044;-73
2022/08/23 10:55:23;;;;;;;12.80;4.20;;;;;;;29.37;37.35;101400.25;5121107;27;20131;-70
2022/08/23 10:57:52;;;;;;;13.50;3.78;;;;;;;29.43;37.28;101395.03;5126825;27;20521;-71
2022/08/23 11:00:28;;;;;;;7.20;2.97;;;;;;;29.48;36.97;101404.56;5131290;27;20777;-71
2022/08/23 11:03:09;;;;;;;8.00;2.75;;;;;;;29.65;36.81;101400.97;5116998;27;20083;-73
2022/08/23 11:05:37;;;;;;;11.15;3.10;;;;;;;29.77;36.91;101400.69;5112618;27;20121;-73
2022/08/23 11:08:44;;;;;;;5.45;2.05;;;;;;;29.86;36.30;101397.03;5131970;27;20050;-73
2022/08/23 11:11:47;;;;;;;8.52;2.10;;;;;;;29.99;35.00;101402.06;5125067;27;20070;-70
2022/08/23 11:14:38;;;;;;;10.88;2.42;;;;;;;30.08;34.67;101401.09;5108098;28;20087;-71
2022/08/23 11:17:27;;;;;;;9.88;2.25;;;;;;;30.12;35.05;101399.75;5104518;27;20127;-71
2022/08/23 11:20:04;;;;;;;11.55;1.90;;;;;;;30.16;34.94;101398.41;5122878;27;20043;-70
2022/08/23 11:22:56;;;;;;;12.80;2.30;;;;;;;30.24;34.62;101394.88;5107706;27;20047;-72
2022/08/23 11:25:23;;;;;;;9.98;2.42;;;;;;;30.30;34.12;101405.09;5109649;28;20125;-72
2022/08/23 11:28:26;;;;;;;6.22;2.10;;;;;;;30.34;34.14;101392.91;5119653;27;20044;-71
2022/08/23 11:31:06;;;;;;;11.80;2.28;;;;;;;30.39;34.11;101397.84;5130028;27;20052;-71
2022/08/23 11:33:43;;;;;;;12.27;2.80;;;;;;;30.43;34.17;101398.34;5126809;27;20048;-72
2022/08/23 11:36:20;;;;;;;17.63;2.50;;;;;;;30.51;34.88;101401.97;5109090;27;20086;-72
2022/08/23 11:38:48;;;;;;;5.88;1.98;;;;;;;30.52;33.85;101402.81;5135586;27;21003;-71
2022/08/23 11:41:52;;;;;;;4.30;1.70;;;;;;;30.58;33.67;101401.31;5114412;27;20507;-74
2022/08/23 11:44:45;;;;;;;4.93;1.95;;;;;;;30.64;33.41;101398.81;5111790;27;20071;-71
2022/08/23 11:47:42;;;;;;;5.72;2.08;;;;;;;30.77;33.15;101401.03;5110089;27;20051;-71
2022/08/23 11:50:30;;;;;;;30.75;4.03;;;;;;;30.92;32.50;101401.25;5111886;27;20800;-72
2022/08/23 11:53:58;;;;;;;15.60;2.60;;;;;;;31.00;32.99;101403.13;5112882;27;20071;-72
2022/08/23 11:56:59;;;;;;;11.05;2.45;;;;;;;30.60;32.83;101393.84;5106493;27;20094;-72
2022/08/23 11:59:37;;;;;;;88.00;7.13;;;;;;;30.51;32.77;101391.09;5103717;27;20036;-73
2022/08/23 12:02:32;;;;;;;18.42;3.40;;;;;;;30.44;33.10;101397.34;5110329;27;20034;-72
2022/08/23 12:05:20;;;;;;;34.13;4.28;;;;;;;30.55;34.08;101390.78;5113183;27;20119;-74
2022/08/23 12:08:01;;;;;;;21.55;2.85;;;;;;;30.74;33.08;101395.91;5111270;27;20067;-73
2022/08/23 12:10:40;;;;;;;14.90;2.50;;;;;;;30.91;32.23;101394.09;5107309;27;20498;-73
2022/08/23 12:13:16;;;;;;;7.90;2.10;;;;;;;31.06;32.67;101388.00;5111718;27;20141;-72
2022/08/23 12:16:10;;;;;;;21.27;2.88;;;;;;;31.19;32.46;101387.53;5111692;27;20506;-72
2022/08/23 12:18:51;;;;;;;10.88;2.38;;;;;;;31.38;32.98;101392.63;5105847;27;20802;-72
2022/08/23 12:21:51;;;;;;;14.68;2.75;;;;;;;31.66;32.39;101385.97;5109710;27;20040;-72